Time;durP1;ratioP1;P1;durP2;ratioP2;P2;SDS_P1;SDS_P2;PMS_P1;PMS_P2;Temp;Humidity;BMP_temperature;BMP_pressure;BME280_temperature;BME280_humidity;BME280_pressure;Samples;Min_cycle;Max_cycle;Signal;HPM_P1;HPM_P2
2024/02/06 00:00:22;;;;;;;12.90;4.65;;;;;;;;;;4969935;28;20050;-85
2024/02/06 00:03:07;;;;;;;13.13;4.85;;;;;;;;;;4966319;28;20043;-85
2024/02/06 00:05:52;;;;;;;12.05;5.97;;;;;;;;;;4958634;28;20062;-85
2024/02/06 00:08:38;;;;;;;12.02;5.30;;;;;;;;;;4944908;29;20031;-83
2024/02/06 00:11:24;;;;;;;11.82;4.03;;;;;;;;;;4960518;28;20038;-81
2024/02/06 00:14:10;;;;;;;10.15;4.70;;;;;;;;;;4958753;28;20231;-85
2024/02/06 00:16:55;;;;;;;10.13;4.75;;;;;;;;;;4986247;28;20117;-85
2024/02/06 00:19:40;;;;;;;11.18;5.82;;;;;;;;;;4956042;28;20052;-84
2024/02/06 00:22:27;;;;;;;9.00;4.57;;;;;;;;;;4972438;28;20108;-85
2024/02/06 00:25:12;;;;;;;10.35;4.57;;;;;;;;;;4964994;28;20132;-86
2024/02/06 00:27:59;;;;;;;8.27;4.63;;;;;;;;;;4964463;28;20366;-87
2024/02/06 00:30:45;;;;;;;7.72;4.45;;;;;;;;;;4963663;28;20031;-86
2024/02/06 00:33:30;;;;;;;8.20;4.95;;;;;;;;;;4970387;28;20049;-86
2024/02/06 00:36:15;;;;;;;13.27;5.00;;;;;;;;;;4939934;28;20037;-85
2024/02/06 00:39:00;;;;;;;9.88;5.10;;;;;;;;;;4960014;28;20034;-84
2024/02/06 00:41:46;;;;;;;9.65;4.68;;;;;;;;;;4969085;28;20104;-85
2024/02/06 00:44:31;;;;;;;14.52;5.78;;;;;;;;;;4952220;28;20019;-85
2024/02/06 00:47:16;;;;;;;7.93;4.63;;;;;;;;;;4969489;28;20022;-87
2024/02/06 00:50:04;;;;;;;10.48;4.97;;;;;;;;;;4960981;28;20038;-85
2024/02/06 00:52:52;;;;;;;8.60;4.82;;;;;;;;;;4950505;28;20062;-85
2024/02/06 00:55:37;;;;;;;9.35;4.43;;;;;;;;;;4977522;28;20098;-86
2024/02/06 00:58:22;;;;;;;11.82;5.20;;;;;;;;;;4956534;28;20026;-86
2024/02/06 01:01:07;;;;;;;9.15;4.30;;;;;;;;;;4962591;28;20035;-86
2024/02/06 01:03:53;;;;;;;10.75;5.25;;;;;;;;;;4955866;28;20030;-85
2024/02/06 01:06:38;;;;;;;9.68;4.45;;;;;;;;;;4969162;28;20026;-86
2024/02/06 01:09:23;;;;;;;9.23;4.40;;;;;;;;;;4983842;28;20082;-86
2024/02/06 01:12:09;;;;;;;9.88;4.97;;;;;;;;;;4956042;28;20038;-86
2024/02/06 01:14:55;;;;;;;15.23;5.80;;;;;;;;;;4959409;28;20054;-85
2024/02/06 01:17:40;;;;;;;9.73;5.07;;;;;;;;;;4954648;28;20121;-86
2024/02/06 01:20:25;;;;;;;9.80;4.70;;;;;;;;;;4959538;28;20050;-86
2024/02/06 01:23:10;;;;;;;10.57;4.85;;;;;;;;;;4942002;28;20051;-86
2024/02/06 01:25:56;;;;;;;9.70;5.15;;;;;;;;;;4954389;28;20035;-85
2024/02/06 01:28:41;;;;;;;9.77;4.93;;;;;;;;;;4962401;28;20457;-85
2024/02/06 01:31:26;;;;;;;8.60;4.90;;;;;;;;;;4962962;28;20045;-84
2024/02/06 01:34:12;;;;;;;9.60;5.00;;;;;;;;;;4956784;28;20023;-82
2024/02/06 01:36:57;;;;;;;15.75;7.93;;;;;;;;;;4956615;28;20030;-84
2024/02/06 01:39:42;;;;;;;10.27;5.28;;;;;;;;;;4955866;28;20528;-84
2024/02/06 01:42:28;;;;;;;12.02;5.80;;;;;;;;;;4955073;28;20113;-86
2024/02/06 01:45:13;;;;;;;8.70;5.05;;;;;;;;;;4954867;28;20033;-84
2024/02/06 01:47:59;;;;;;;10.23;5.32;;;;;;;;;;4956091;28;20089;-85
2024/02/06 01:50:45;;;;;;;8.32;4.90;;;;;;;;;;4966947;28;20035;-85
2024/02/06 01:53:31;;;;;;;12.10;5.80;;;;;;;;;;4935429;29;20094;-87
2024/02/06 01:56:16;;;;;;;9.50;5.40;;;;;;;;;;4935578;29;20043;-86
2024/02/06 01:59:03;;;;;;;10.60;5.03;;;;;;;;;;4955982;28;20046;-85
2024/02/06 02:01:49;;;;;;;12.25;5.90;;;;;;;;;;4958220;28;20066;-85
2024/02/06 02:04:34;;;;;;;13.30;6.60;;;;;;;;;;4936110;28;20110;-86
2024/02/06 02:07:19;;;;;;;9.70;5.70;;;;;;;;;;4956658;28;20027;-86
2024/02/06 02:10:06;;;;;;;10.20;5.35;;;;;;;;;;4959252;28;20715;-85
2024/02/06 02:12:51;;;;;;;13.23;6.10;;;;;;;;;;4953813;28;20042;-85
2024/02/06 02:15:36;;;;;;;9.90;5.25;;;;;;;;;;4968199;28;20101;-85
2024/02/06 02:18:22;;;;;;;10.35;4.97;;;;;;;;;;4943548;28;20093;-85
2024/02/06 02:21:11;;;;;;;8.55;5.53;;;;;;;;;;4954914;28;20031;-85
2024/02/06 02:23:56;;;;;;;14.50;5.28;;;;;;;;;;4935867;29;20035;-85
2024/02/06 02:26:42;;;;;;;9.60;5.40;;;;;;;;;;4936536;28;20039;-85
2024/02/06 02:29:28;;;;;;;11.65;4.93;;;;;;;;;;4940976;28;20075;-84
2024/02/06 02:32:14;;;;;;;8.15;4.55;;;;;;;;;;4948128;28;20035;-84
2024/02/06 02:34:59;;;;;;;9.73;5.20;;;;;;;;;;4953418;28;20045;-87
2024/02/06 02:37:44;;;;;;;12.75;6.03;;;;;;;;;;4956912;28;20117;-87
2024/02/06 02:40:29;;;;;;;9.45;4.90;;;;;;;;;;4935661;29;20490;-86
2024/02/06 02:43:15;;;;;;;11.50;5.80;;;;;;;;;;4959310;28;20026;-85
2024/02/06 02:46:01;;;;;;;9.88;5.30;;;;;;;;;;4963179;28;20162;-87
2024/02/06 02:48:46;;;;;;;11.68;6.20;;;;;;;;;;4963006;28;20031;-84
2024/02/06 02:51:32;;;;;;;10.77;5.85;;;;;;;;;;4969402;28;20031;-86
2024/02/06 02:54:19;;;;;;;10.05;5.40;;;;;;;;;;4971482;28;20035;-86
2024/02/06 02:57:05;;;;;;;12.13;6.53;;;;;;;;;;4955756;28;20157;-85
2024/02/06 02:59:50;;;;;;;10.40;4.85;;;;;;;;;;4952759;28;20057;-85
2024/02/06 03:02:35;;;;;;;9.82;5.22;;;;;;;;;;4961622;28;20041;-85
2024/02/06 03:05:21;;;;;;;9.68;5.10;;;;;;;;;;4973697;28;20061;-85
2024/02/06 03:08:06;;;;;;;11.77;6.18;;;;;;;;;;4969561;28;20030;-86
2024/02/06 03:10:51;;;;;;;10.35;5.43;;;;;;;;;;4963781;28;20422;-87
2024/02/06 03:13:39;;;;;;;11.43;6.22;;;;;;;;;;4967091;28;20015;-85
2024/02/06 03:16:24;;;;;;;9.75;4.85;;;;;;;;;;4974414;28;20409;-86
2024/02/06 03:19:09;;;;;;;10.07;5.57;;;;;;;;;;4967316;28;20034;-85
2024/02/06 03:21:55;;;;;;;9.38;5.28;;;;;;;;;;4958926;28;20038;-84
2024/02/06 03:24:40;;;;;;;9.77;5.40;;;;;;;;;;4960811;28;20022;-85
2024/02/06 03:27:26;;;;;;;13.85;6.45;;;;;;;;;;4960682;28;20030;-86
2024/02/06 03:30:11;;;;;;;11.98;6.15;;;;;;;;;;4963118;28;20030;-85
2024/02/06 03:32:56;;;;;;;9.95;5.90;;;;;;;;;;4980566;28;20057;-85
2024/02/06 03:35:43;;;;;;;9.65;5.65;;;;;;;;;;4968220;28;20034;-85
2024/02/06 03:38:28;;;;;;;14.82;7.28;;;;;;;;;;4962865;28;20018;-85
2024/02/06 03:41:14;;;;;;;10.95;5.80;;;;;;;;;;4952058;28;20473;-85
2024/02/06 03:43:59;;;;;;;12.30;6.43;;;;;;;;;;4965425;28;20026;-83
2024/02/06 03:46:44;;;;;;;16.38;5.60;;;;;;;;;;4970345;28;20438;-83
2024/02/06 03:49:29;;;;;;;12.05;5.82;;;;;;;;;;4958420;28;20027;-84
2024/02/06 03:52:15;;;;;;;13.25;5.97;;;;;;;;;;4976025;28;20030;-84
2024/02/06 03:55:00;;;;;;;10.93;5.75;;;;;;;;;;4980794;28;20041;-84
2024/02/06 03:57:45;;;;;;;11.43;4.97;;;;;;;;;;4979937;28;20077;-84
2024/02/06 04:00:31;;;;;;;11.20;5.38;;;;;;;;;;4971196;28;20090;-85
2024/02/06 04:03:17;;;;;;;10.90;5.55;;;;;;;;;;4966458;28;20050;-86
2024/02/06 04:06:02;;;;;;;10.60;6.15;;;;;;;;;;4978313;28;20118;-85
2024/02/06 04:08:50;;;;;;;11.75;6.88;;;;;;;;;;4980608;28;20057;-86
2024/02/06 04:11:36;;;;;;;12.13;5.65;;;;;;;;;;4958492;28;20031;-86
2024/02/06 04:14:21;;;;;;;7.47;5.38;;;;;;;;;;4971733;28;20041;-84
2024/02/06 04:17:06;;;;;;;12.20;5.63;;;;;;;;;;4955314;28;20055;-85
2024/02/06 04:19:52;;;;;;;12.65;6.22;;;;;;;;;;4970349;28;20088;-87
2024/02/06 04:22:37;;;;;;;15.02;6.95;;;;;;;;;;4963036;28;20030;-86
2024/02/06 04:25:25;;;;;;;12.80;6.57;;;;;;;;;;4963530;28;20039;-86
2024/02/06 04:28:10;;;;;;;11.07;5.32;;;;;;;;;;4970964;28;20073;-86
2024/02/06 04:30:56;;;;;;;10.93;5.40;;;;;;;;;;4961436;28;20023;-85
2024/02/06 04:33:41;;;;;;;9.10;5.57;;;;;;;;;;4951798;28;20038;-86
2024/02/06 04:36:26;;;;;;;11.55;5.63;;;;;;;;;;4952725;28;20027;-86
2024/02/06 04:39:12;;;;;;;14.50;5.43;;;;;;;;;;4936332;28;20122;-85
2024/02/06 04:41:57;;;;;;;11.30;5.82;;;;;;;;;;4955969;28;20077;-86
2024/02/06 04:44:42;;;;;;;9.50;5.90;;;;;;;;;;4957228;28;20023;-85
2024/02/06 04:47:28;;;;;;;11.88;6.00;;;;;;;;;;4956239;28;20026;-86
2024/02/06 04:50:13;;;;;;;16.50;7.00;;;;;;;;;;4955921;28;20050;-86
2024/02/06 04:53:03;;;;;;;14.30;7.35;;;;;;;;;;4947129;28;20435;-83
2024/02/06 04:55:48;;;;;;;11.98;6.53;;;;;;;;;;4955015;28;20081;-84
2024/02/06 04:58:34;;;;;;;12.07;6.05;;;;;;;;;;4967521;28;20038;-84
2024/02/06 05:01:20;;;;;;;11.18;6.00;;;;;;;;;;4949592;28;20038;-85
2024/02/06 05:04:06;;;;;;;13.95;7.50;;;;;;;;;;4936852;28;20072;-84
2024/02/06 05:06:51;;;;;;;9.93;5.70;;;;;;;;;;4948261;28;20030;-83
2024/02/06 05:09:36;;;;;;;13.52;6.40;;;;;;;;;;4954537;28;20073;-85
2024/02/06 05:12:22;;;;;;;13.25;7.28;;;;;;;;;;4956088;28;20027;-86
2024/02/06 05:15:10;;;;;;;16.38;7.20;;;;;;;;;;4956022;28;20038;-85
2024/02/06 05:17:55;;;;;;;13.07;7.55;;;;;;;;;;4962304;28;20112;-85
2024/02/06 05:20:43;;;;;;;14.18;7.10;;;;;;;;;;4968576;28;20043;-85
2024/02/06 05:23:28;;;;;;;15.05;7.20;;;;;;;;;;4946059;28;20038;-83
2024/02/06 05:26:14;;;;;;;14.20;6.78;;;;;;;;;;4954098;28;20046;-85
2024/02/06 05:28:59;;;;;;;12.65;7.30;;;;;;;;;;4967550;28;20110;-85
2024/02/06 05:31:44;;;;;;;13.35;6.35;;;;;;;;;;4955076;28;20030;-85
2024/02/06 05:34:30;;;;;;;13.43;6.60;;;;;;;;;;4955662;28;20045;-86
2024/02/06 05:37:17;;;;;;;17.42;7.28;;;;;;;;;;4939325;28;20038;-84
2024/02/06 05:40:05;;;;;;;15.20;6.78;;;;;;;;;;4954291;28;20041;-85
2024/02/06 05:42:51;;;;;;;12.57;6.43;;;;;;;;;;4968035;28;20038;-85
2024/02/06 05:45:36;;;;;;;13.38;6.43;;;;;;;;;;4948448;28;20022;-85
2024/02/06 05:48:21;;;;;;;23.88;6.30;;;;;;;;;;4955616;28;20026;-85
2024/02/06 05:51:06;;;;;;;9.63;6.05;;;;;;;;;;4972377;28;20484;-85
2024/02/06 05:53:51;;;;;;;16.30;7.72;;;;;;;;;;4945818;28;20038;-85
2024/02/06 05:56:37;;;;;;;10.85;6.43;;;;;;;;;;4956301;28;20026;-85
2024/02/06 05:59:24;;;;;;;12.95;6.28;;;;;;;;;;4960719;28;20410;-85
2024/02/06 06:02:10;;;;;;;14.30;6.80;;;;;;;;;;4956637;28;20280;-87
2024/02/06 06:04:55;;;;;;;14.20;7.45;;;;;;;;;;4961331;28;20031;-82
2024/02/06 06:07:40;;;;;;;12.25;7.00;;;;;;;;;;4954204;28;20030;-86
2024/02/06 06:10:26;;;;;;;12.60;6.68;;;;;;;;;;4970411;28;20019;-86
2024/02/06 06:13:11;;;;;;;13.98;6.65;;;;;;;;;;4949618;28;20030;-86
2024/02/06 06:15:57;;;;;;;15.98;6.60;;;;;;;;;;4963036;28;20053;-85
2024/02/06 06:18:42;;;;;;;12.75;6.85;;;;;;;;;;4966215;28;20157;-89
2024/02/06 06:21:28;;;;;;;17.08;6.55;;;;;;;;;;4963173;28;20137;-82
2024/02/06 06:24:13;;;;;;;13.32;6.40;;;;;;;;;;4952366;28;20021;-82
2024/02/06 06:26:58;;;;;;;13.32;6.50;;;;;;;;;;4963017;28;20440;-83
2024/02/06 06:29:47;;;;;;;12.68;6.95;;;;;;;;;;4961358;28;20026;-86
2024/02/06 06:32:32;;;;;;;13.77;7.00;;;;;;;;;;4948430;29;20031;-86
2024/02/06 06:35:17;;;;;;;13.45;7.15;;;;;;;;;;4958386;28;20027;-86
2024/02/06 06:38:03;;;;;;;12.60;7.10;;;;;;;;;;4959380;28;20121;-87
2024/02/06 06:40:48;;;;;;;13.18;7.97;;;;;;;;;;4967997;28;20030;-88
2024/02/06 06:43:34;;;;;;;18.40;6.97;;;;;;;;;;4962812;28;20386;-89
2024/02/06 06:46:19;;;;;;;11.68;6.00;;;;;;;;;;4952481;28;20022;-87
2024/02/06 06:49:05;;;;;;;12.77;5.80;;;;;;;;;;4957489;28;20034;-76
2024/02/06 06:51:50;;;;;;;15.63;6.38;;;;;;;;;;4966020;28;20458;-79
2024/02/06 06:54:35;;;;;;;13.20;6.50;;;;;;;;;;4959556;28;20031;-83
2024/02/06 06:57:21;;;;;;;10.23;5.72;;;;;;;;;;4959319;28;20138;-83
2024/02/06 07:00:06;;;;;;;11.27;6.28;;;;;;;;;;4969713;28;20041;-83
2024/02/06 07:02:52;;;;;;;11.07;6.32;;;;;;;;;;4975973;28;20042;-83
2024/02/06 07:05:37;;;;;;;13.15;6.72;;;;;;;;;;4958683;28;20072;-82
2024/02/06 07:08:23;;;;;;;12.07;6.05;;;;;;;;;;4971376;28;20105;-86
2024/02/06 07:11:08;;;;;;;13.65;5.10;;;;;;;;;;4967974;28;20041;-86
2024/02/06 07:13:54;;;;;;;10.63;5.38;;;;;;;;;;4956966;28;20553;-82
2024/02/06 07:16:43;;;;;;;10.73;5.30;;;;;;;;;;4961483;28;20149;-82
2024/02/06 07:19:32;;;;;;;12.65;5.78;;;;;;;;;;4963953;28;20030;-82
2024/02/06 07:22:17;;;;;;;13.25;5.55;;;;;;;;;;4961331;28;20041;-82
2024/02/06 07:25:03;;;;;;;14.05;5.78;;;;;;;;;;4954492;28;20391;-82
2024/02/06 07:27:51;;;;;;;10.30;5.28;;;;;;;;;;4964686;28;20065;-84
2024/02/06 07:30:37;;;;;;;11.13;5.22;;;;;;;;;;4962495;28;20022;-83
2024/02/06 07:33:22;;;;;;;11.90;5.97;;;;;;;;;;4961484;28;20062;-83
2024/02/06 07:36:07;;;;;;;14.20;5.70;;;;;;;;;;4953627;28;20121;-83
2024/02/06 07:38:53;;;;;;;11.27;5.10;;;;;;;;;;4955115;28;20031;-84
2024/02/06 07:41:38;;;;;;;10.20;4.90;;;;;;;;;;4944220;28;20137;-84
2024/02/06 07:44:29;;;;;;;11.73;5.22;;;;;;;;;;4958957;28;20034;-83
2024/02/06 07:47:19;;;;;;;11.10;5.95;;;;;;;;;;4968040;28;20022;-84
2024/02/06 07:50:06;;;;;;;9.15;4.28;;;;;;;;;;4961502;28;20022;-83
2024/02/06 07:52:51;;;;;;;14.70;5.40;;;;;;;;;;4958107;28;20075;-83
2024/02/06 07:55:39;;;;;;;10.13;5.45;;;;;;;;;;4960535;28;20510;-83
2024/02/06 07:58:24;;;;;;;10.38;5.38;;;;;;;;;;4973237;28;20034;-83
2024/02/06 08:01:11;;;;;;;11.02;5.72;;;;;;;;;;4962672;28;20038;-83
2024/02/06 08:03:56;;;;;;;10.55;4.80;;;;;;;;;;4962192;28;20396;-84
2024/02/06 08:06:41;;;;;;;11.80;5.40;;;;;;;;;;4955096;28;20027;-84
2024/02/06 08:09:27;;;;;;;10.23;4.93;;;;;;;;;;4957286;28;20034;-83
2024/02/06 08:12:12;;;;;;;13.57;5.43;;;;;;;;;;4967232;28;20034;-85
2024/02/06 08:14:57;;;;;;;8.52;4.68;;;;;;;;;;4957214;28;20406;-84
2024/02/06 08:17:47;;;;;;;9.23;5.10;;;;;;;;;;4954643;28;20070;-84
2024/02/06 08:20:32;;;;;;;9.93;5.03;;;;;;;;;;4961853;28;20385;-83
2024/02/06 08:23:17;;;;;;;10.00;4.63;;;;;;;;;;4970948;28;20057;-83
2024/02/06 08:26:03;;;;;;;12.70;4.95;;;;;;;;;;4960084;28;20031;-83
2024/02/06 08:28:49;;;;;;;10.35;4.60;;;;;;;;;;4957711;28;20027;-82
2024/02/06 08:31:34;;;;;;;10.32;4.50;;;;;;;;;;4962632;28;20038;-82
2024/02/06 08:34:19;;;;;;;9.40;4.68;;;;;;;;;;4974491;28;20473;-83
2024/02/06 08:37:05;;;;;;;9.43;3.97;;;;;;;;;;4966162;28;20057;-83
2024/02/06 08:39:50;;;;;;;9.35;3.53;;;;;;;;;;4945372;28;20124;-85
2024/02/06 08:42:35;;;;;;;7.22;4.20;;;;;;;;;;4966921;28;20033;-84
2024/02/06 08:45:21;;;;;;;10.60;6.20;;;;;;;;;;4957654;28;20382;-85
2024/02/06 08:48:09;;;;;;;10.40;4.05;;;;;;;;;;4966834;28;20121;-83
2024/02/06 08:50:55;;;;;;;11.73;4.53;;;;;;;;;;4964782;28;20516;-83
2024/02/06 08:53:40;;;;;;;7.00;3.63;;;;;;;;;;4960166;28;20037;-82
2024/02/06 08:56:25;;;;;;;7.25;3.55;;;;;;;;;;4962827;28;20470;-81
2024/02/06 08:59:10;;;;;;;10.63;4.85;;;;;;;;;;4962350;28;20034;-83
2024/02/06 09:02:01;;;;;;;8.15;4.05;;;;;;;;;;4963506;28;20030;-84
2024/02/06 09:04:46;;;;;;;10.18;4.05;;;;;;;;;;4953365;28;20031;-82
2024/02/06 09:07:31;;;;;;;7.57;3.63;;;;;;;;;;4955197;28;20363;-83
2024/02/06 09:10:16;;;;;;;6.47;3.38;;;;;;;;;;4964633;28;20023;-84
2024/02/06 09:13:03;;;;;;;12.77;4.68;;;;;;;;;;4957105;28;20469;-84
2024/02/06 09:15:48;;;;;;;9.80;3.97;;;;;;;;;;4960463;28;20200;-83
2024/02/06 09:18:34;;;;;;;9.10;4.22;;;;;;;;;;4963579;28;20022;-83
2024/02/06 09:21:19;;;;;;;10.07;4.57;;;;;;;;;;4963855;28;20026;-83
2024/02/06 09:24:05;;;;;;;7.38;3.65;;;;;;;;;;4956880;28;20062;-84
2024/02/06 09:26:51;;;;;;;8.73;3.60;;;;;;;;;;4959430;28;20061;-81
2024/02/06 09:29:36;;;;;;;9.07;3.65;;;;;;;;;;4971153;28;20062;-82
2024/02/06 09:32:22;;;;;;;10.95;3.35;;;;;;;;;;4957362;28;20041;-82
2024/02/06 09:35:07;;;;;;;10.55;4.13;;;;;;;;;;4963781;28;20046;-82
2024/02/06 09:37:53;;;;;;;6.63;3.65;;;;;;;;;;4967537;28;20052;-83
2024/02/06 09:40:39;;;;;;;11.70;3.55;;;;;;;;;;4955870;28;20026;-83
2024/02/06 09:43:24;;;;;;;7.40;2.90;;;;;;;;;;4954166;28;20117;-83
2024/02/06 09:46:10;;;;;;;8.98;3.28;;;;;;;;;;4957196;28;20034;-83
2024/02/06 09:48:56;;;;;;;18.52;5.43;;;;;;;;;;4965603;28;20029;-83
2024/02/06 09:51:42;;;;;;;8.77;3.38;;;;;;;;;;4963525;28;20029;-82
2024/02/06 09:54:28;;;;;;;5.35;2.97;;;;;;;;;;4953613;28;20031;-83
2024/02/06 09:57:20;;;;;;;9.27;3.58;;;;;;;;;;4965750;28;20035;-83
2024/02/06 10:00:07;;;;;;;5.78;2.58;;;;;;;;;;4962737;28;20033;-83
2024/02/06 10:02:59;;;;;;;5.82;2.97;;;;;;;;;;4952601;28;20144;-81
2024/02/06 10:05:46;;;;;;;8.38;2.92;;;;;;;;;;4954047;28;20022;-83
2024/02/06 10:08:31;;;;;;;5.43;2.60;;;;;;;;;;4961306;28;20109;-81
2024/02/06 10:11:17;;;;;;;9.82;4.13;;;;;;;;;;4967740;28;20037;-82
2024/02/06 10:14:04;;;;;;;12.60;3.72;;;;;;;;;;4961612;28;20086;-83
2024/02/06 10:16:49;;;;;;;7.10;3.17;;;;;;;;;;4954414;28;20070;-83
2024/02/06 10:19:35;;;;;;;6.10;2.45;;;;;;;;;;4947809;28;20046;-83
2024/02/06 10:22:20;;;;;;;7.60;2.70;;;;;;;;;;4960941;28;20043;-83
2024/02/06 10:25:08;;;;;;;11.68;2.50;;;;;;;;;;4953058;28;20031;-84
2024/02/06 10:27:57;;;;;;;3.83;1.50;;;;;;;;;;4953615;28;20027;-83
2024/02/06 10:30:43;;;;;;;3.88;1.98;;;;;;;;;;4961193;28;20087;-83
2024/02/06 10:33:28;;;;;;;4.60;2.20;;;;;;;;;;4952867;28;20027;-81
2024/02/06 10:36:16;;;;;;;4.38;1.63;;;;;;;;;;4947650;28;20023;-84
2024/02/06 10:39:02;;;;;;;2.00;1.38;;;;;;;;;;4956809;28;20130;-83
2024/02/06 10:41:56;;;;;;;3.83;1.35;;;;;;;;;;4948171;28;20059;-84
2024/02/06 10:44:41;;;;;;;4.80;1.65;;;;;;;;;;4950854;28;20367;-84
2024/02/06 10:47:27;;;;;;;1.50;1.35;;;;;;;;;;4954627;28;20027;-81
2024/02/06 10:50:14;;;;;;;5.55;1.55;;;;;;;;;;4953994;28;20027;-82
2024/02/06 10:53:02;;;;;;;4.30;1.73;;;;;;;;;;4952789;28;20529;-82
2024/02/06 10:55:47;;;;;;;5.88;1.80;;;;;;;;;;4946569;29;20150;-83
2024/02/06 10:58:40;;;;;;;4.88;1.80;;;;;;;;;;4956216;28;20069;-82
2024/02/06 11:01:34;;;;;;;3.80;1.40;;;;;;;;;;4948921;28;20050;-81
2024/02/06 11:04:21;;;;;;;2.42;1.10;;;;;;;;;;4955016;28;20144;-81
2024/02/06 11:07:08;;;;;;;5.25;1.80;;;;;;;;;;4945514;28;20031;-82
2024/02/06 11:09:57;;;;;;;4.82;2.00;;;;;;;;;;4944094;28;20041;-83
2024/02/06 11:12:43;;;;;;;3.22;1.70;;;;;;;;;;4961954;28;20104;-84
2024/02/06 11:15:30;;;;;;;5.97;2.00;;;;;;;;;;4969252;28;20047;-84
2024/02/06 11:18:18;;;;;;;4.40;1.92;;;;;;;;;;4964511;28;20035;-85
2024/02/06 11:21:04;;;;;;;3.10;1.40;;;;;;;;;;4951838;28;20034;-86
2024/02/06 11:23:50;;;;;;;2.63;1.48;;;;;;;;;;4950744;28;20023;-82
2024/02/06 11:26:37;;;;;;;5.85;1.60;;;;;;;;;;4961389;28;20023;-82
2024/02/06 11:29:22;;;;;;;5.50;2.30;;;;;;;;;;4970140;28;20023;-83
2024/02/06 11:32:08;;;;;;;5.57;1.60;;;;;;;;;;4937111;28;20035;-84
2024/02/06 11:34:54;;;;;;;6.80;2.40;;;;;;;;;;4950235;28;20113;-83
2024/02/06 11:37:40;;;;;;;5.75;1.73;;;;;;;;;;4963287;28;20063;-85
2024/02/06 11:40:27;;;;;;;4.40;1.55;;;;;;;;;;4947216;28;20035;-81
2024/02/06 11:43:12;;;;;;;4.57;1.95;;;;;;;;;;4950416;28;20358;-82
2024/02/06 11:46:01;;;;;;;6.28;2.38;;;;;;;;;;4951089;28;20501;-83
2024/02/06 11:48:47;;;;;;;5.57;1.58;;;;;;;;;;4950653;29;20035;-83
2024/02/06 11:51:32;;;;;;;6.28;1.80;;;;;;;;;;4969104;28;20039;-83
2024/02/06 11:54:18;;;;;;;6.38;2.08;;;;;;;;;;4956772;28;20117;-82
2024/02/06 11:57:03;;;;;;;2.67;1.98;;;;;;;;;;4956166;28;20039;-83
2024/02/06 11:59:49;;;;;;;5.00;2.30;;;;;;;;;;4966834;28;20034;-83
2024/02/06 12:02:35;;;;;;;5.18;2.10;;;;;;;;;;4956515;28;20043;-83
2024/02/06 12:05:20;;;;;;;4.60;2.35;;;;;;;;;;4979055;28;20074;-82
2024/02/06 12:08:05;;;;;;;4.10;1.60;;;;;;;;;;4974600;28;20094;-83
2024/02/06 12:10:51;;;;;;;6.75;2.22;;;;;;;;;;4962991;28;20027;-83
2024/02/06 12:13:36;;;;;;;4.97;1.80;;;;;;;;;;4974117;28;20042;-83
2024/02/06 12:16:22;;;;;;;6.68;1.92;;;;;;;;;;4978162;28;20055;-84
2024/02/06 12:19:09;;;;;;;5.28;2.45;;;;;;;;;;4959888;28;20114;-84
2024/02/06 12:21:57;;;;;;;6.13;1.90;;;;;;;;;;4950619;28;20042;-83
2024/02/06 12:24:43;;;;;;;6.38;1.55;;;;;;;;;;4949145;28;20582;-85
2024/02/06 12:27:28;;;;;;;11.43;2.58;;;;;;;;;;4963269;28;20038;-83
2024/02/06 12:30:21;;;;;;;11.10;2.25;;;;;;;;;;4960755;28;20059;-83
2024/02/06 12:33:07;;;;;;;4.97;1.48;;;;;;;;;;4950679;28;20023;-83
2024/02/06 12:35:54;;;;;;;10.70;2.30;;;;;;;;;;4948496;28;20465;-85
2024/02/06 12:38:39;;;;;;;5.68;2.00;;;;;;;;;;4959153;28;20039;-84
2024/02/06 12:41:25;;;;;;;6.75;2.55;;;;;;;;;;4956071;28;20027;-84
2024/02/06 12:44:10;;;;;;;5.53;1.80;;;;;;;;;;4956509;28;20059;-86
2024/02/06 12:46:58;;;;;;;8.00;2.03;;;;;;;;;;4952302;28;20058;-85
2024/02/06 12:49:43;;;;;;;8.30;2.42;;;;;;;;;;4957118;28;20065;-84
2024/02/06 12:52:30;;;;;;;8.38;2.65;;;;;;;;;;4961575;28;20082;-84
2024/02/06 12:55:16;;;;;;;7.03;1.98;;;;;;;;;;4957537;28;20023;-84
2024/02/06 12:58:01;;;;;;;8.48;1.90;;;;;;;;;;4954740;28;20110;-84
2024/02/06 13:00:54;;;;;;;5.65;2.35;;;;;;;;;;4953000;28;20058;-86
2024/02/06 13:03:39;;;;;;;8.30;2.25;;;;;;;;;;4954735;28;20114;-85
2024/02/06 13:06:35;;;;;;;5.97;2.78;;;;;;;;;;4949222;29;20023;-84
2024/02/06 13:09:28;;;;;;;4.97;1.75;;;;;;;;;;4955275;28;20407;-84
2024/02/06 13:12:15;;;;;;;9.38;2.38;;;;;;;;;;4956588;28;20442;-83
2024/02/06 13:15:06;;;;;;;8.38;2.35;;;;;;;;;;4954329;28;20109;-83
2024/02/06 13:17:56;;;;;;;5.68;1.92;;;;;;;;;;4947766;28;20027;-83
2024/02/06 13:20:42;;;;;;;15.02;2.72;;;;;;;;;;4954601;28;20034;-84
2024/02/06 13:23:27;;;;;;;7.05;1.80;;;;;;;;;;4957671;28;20030;-83
2024/02/06 13:26:13;;;;;;;7.32;2.58;;;;;;;;;;4961066;28;20022;-84
2024/02/06 13:28:58;;;;;;;8.50;2.00;;;;;;;;;;4963881;28;20026;-83
2024/02/06 13:31:43;;;;;;;9.15;2.50;;;;;;;;;;4962745;28;20453;-85
2024/02/06 13:34:29;;;;;;;9.32;2.53;;;;;;;;;;4957376;28;20081;-85
2024/02/06 13:37:15;;;;;;;9.77;2.22;;;;;;;;;;4949799;28;20034;-86
2024/02/06 13:40:01;;;;;;;8.63;2.20;;;;;;;;;;4960128;28;20450;-84
2024/02/06 13:42:46;;;;;;;5.90;1.92;;;;;;;;;;4958114;28;20035;-84
2024/02/06 13:45:31;;;;;;;5.75;2.38;;;;;;;;;;4969426;28;20109;-84
2024/02/06 13:48:17;;;;;;;5.60;2.25;;;;;;;;;;4953196;28;20023;-85
2024/02/06 13:51:02;;;;;;;4.93;1.80;;;;;;;;;;4957738;28;20034;-83
2024/02/06 13:53:47;;;;;;;5.47;2.20;;;;;;;;;;4962054;28;20435;-86
2024/02/06 13:56:32;;;;;;;7.55;2.22;;;;;;;;;;4958745;28;20121;-85
2024/02/06 13:59:18;;;;;;;6.05;2.10;;;;;;;;;;4957159;28;20378;-88
2024/02/06 14:02:04;;;;;;;9.57;2.65;;;;;;;;;;4935247;29;20115;-86
2024/02/06 14:04:49;;;;;;;9.52;2.35;;;;;;;;;;4950695;28;20025;-82
2024/02/06 14:07:37;;;;;;;4.53;2.08;;;;;;;;;;4957713;28;20469;-86
2024/02/06 14:10:22;;;;;;;7.15;1.92;;;;;;;;;;4944985;28;20023;-89
2024/02/06 14:13:08;;;;;;;3.85;1.60;;;;;;;;;;4966374;28;20026;-85
2024/02/06 14:15:56;;;;;;;6.60;1.90;;;;;;;;;;4959458;28;20046;-86
2024/02/06 14:18:41;;;;;;;6.30;1.73;;;;;;;;;;4961717;28;20027;-83
2024/02/06 14:21:26;;;;;;;7.32;2.05;;;;;;;;;;4960150;28;20460;-84
2024/02/06 14:24:12;;;;;;;6.22;2.58;;;;;;;;;;4953985;28;20042;-85
2024/02/06 14:26:57;;;;;;;6.53;1.80;;;;;;;;;;4955133;28;20036;-85
2024/02/06 14:29:42;;;;;;;6.40;1.88;;;;;;;;;;4962848;28;20042;-84
2024/02/06 14:32:28;;;;;;;7.35;2.10;;;;;;;;;;4964722;28;20022;-84
2024/02/06 14:35:13;;;;;;;6.95;1.95;;;;;;;;;;4960524;28;20098;-84
2024/02/06 14:37:59;;;;;;;4.80;1.80;;;;;;;;;;4954200;28;20034;-84
2024/02/06 14:40:44;;;;;;;6.57;1.90;;;;;;;;;;4944359;28;20046;-84
2024/02/06 14:43:30;;;;;;;4.05;1.90;;;;;;;;;;4956023;28;20030;-85
2024/02/06 14:46:15;;;;;;;5.53;1.50;;;;;;;;;;4951860;28;20031;-85
2024/02/06 14:49:00;;;;;;;5.22;1.90;;;;;;;;;;4960215;28;20030;-86
2024/02/06 14:51:46;;;;;;;5.78;2.10;;;;;;;;;;4960876;28;20034;-84
2024/02/06 14:54:31;;;;;;;13.15;2.50;;;;;;;;;;4958051;28;20031;-83
2024/02/06 14:57:16;;;;;;;10.02;2.47;;;;;;;;;;4956815;28;20030;-84
2024/02/06 15:00:05;;;;;;;6.40;2.50;;;;;;;;;;4963748;28;20027;-86
2024/02/06 15:02:51;;;;;;;5.70;1.90;;;;;;;;;;4973809;28;20121;-86
2024/02/06 15:05:36;;;;;;;4.90;2.08;;;;;;;;;;4953762;28;20125;-85
2024/02/06 15:08:22;;;;;;;4.28;1.77;;;;;;;;;;4960882;28;20025;-85
2024/02/06 15:11:07;;;;;;;6.38;1.90;;;;;;;;;;4961882;28;20038;-86
2024/02/06 15:13:52;;;;;;;8.40;2.38;;;;;;;;;;4962293;28;20357;-86
2024/02/06 15:16:40;;;;;;;5.97;1.80;;;;;;;;;;4974150;28;20077;-85
2024/02/06 15:19:26;;;;;;;2.67;1.42;;;;;;;;;;4945310;28;20030;-85
2024/02/06 15:22:11;;;;;;;4.85;1.98;;;;;;;;;;4971633;28;20030;-86
2024/02/06 15:24:56;;;;;;;4.25;1.85;;;;;;;;;;4968766;28;20080;-85
2024/02/06 15:27:42;;;;;;;4.13;1.85;;;;;;;;;;4962770;28;20015;-86
2024/02/06 15:30:27;;;;;;;9.10;2.00;;;;;;;;;;4965406;28;20053;-82
2024/02/06 15:33:12;;;;;;;4.72;1.92;;;;;;;;;;4953470;28;20341;-82
2024/02/06 15:36:00;;;;;;;5.40;1.98;;;;;;;;;;4965065;28;20109;-81
2024/02/06 15:38:47;;;;;;;6.88;1.80;;;;;;;;;;4957002;28;20118;-82
2024/02/06 15:41:32;;;;;;;6.38;1.50;;;;;;;;;;4964972;28;20035;-82
2024/02/06 15:44:18;;;;;;;7.45;1.90;;;;;;;;;;4956654;28;20065;-83
2024/02/06 15:47:03;;;;;;;3.30;1.40;;;;;;;;;;4955999;28;20033;-82
2024/02/06 15:49:49;;;;;;;6.25;1.95;;;;;;;;;;4955223;28;20114;-81
2024/02/06 15:52:33;;;;;;;6.10;2.22;;;;;;;;;;4970673;28;20034;-81
2024/02/06 15:55:19;;;;;;;3.95;1.58;;;;;;;;;;4963047;28;20078;-81
2024/02/06 15:58:04;;;;;;;4.80;1.80;;;;;;;;;;4969492;28;20023;-81
2024/02/06 16:00:50;;;;;;;4.22;1.75;;;;;;;;;;4956207;28;20058;-81
2024/02/06 16:03:35;;;;;;;5.05;1.63;;;;;;;;;;4983483;28;20256;-81
2024/02/06 16:06:21;;;;;;;7.43;2.13;;;;;;;;;;4989365;28;20471;-83
2024/02/06 16:09:07;;;;;;;2.55;1.63;;;;;;;;;;4969251;28;20025;-83
2024/02/06 16:11:52;;;;;;;3.90;1.77;;;;;;;;;;4968905;28;20110;-82
2024/02/06 16:14:41;;;;;;;3.40;1.60;;;;;;;;;;4959932;28;20034;-83
2024/02/06 16:17:41;;;;;;;5.93;2.13;;;;;;;;;;4953969;28;20030;-82
2024/02/06 16:20:26;;;;;;;3.42;1.80;;;;;;;;;;4955171;28;20022;-81
2024/02/06 16:23:11;;;;;;;5.85;2.03;;;;;;;;;;4952422;28;20042;-82
2024/02/06 16:25:57;;;;;;;4.00;1.63;;;;;;;;;;4955392;28;20031;-82
2024/02/06 16:28:42;;;;;;;5.68;1.90;;;;;;;;;;4954014;28;20049;-81